createdAt,value
2022-11-04T00:00:12.327Z,1.50
2022-11-04T00:02:39.023Z,1.35
2022-11-04T00:05:05.816Z,1.60
2022-11-04T00:07:50.838Z,2.40
2022-11-04T00:10:17.387Z,3.33
2022-11-04T00:12:44.042Z,2.60
2022-11-04T00:15:33.982Z,2.38
2022-11-04T00:18:00.552Z,2.20
2022-11-04T00:20:45.491Z,4.95
2022-11-04T00:23:30.375Z,3.80
2022-11-04T00:26:15.534Z,2.00
2022-11-04T00:28:44.943Z,2.60
2022-11-04T00:31:30.497Z,2.43
2022-11-04T00:33:58.591Z,5.00
2022-11-04T00:36:26.102Z,2.05
2022-11-04T00:38:53.610Z,1.80
2022-11-04T00:41:26.737Z,2.55
2022-11-04T00:43:59.017Z,3.38
2022-11-04T00:46:26.908Z,2.80
2022-11-04T00:48:53.848Z,2.70
2022-11-04T00:51:21.589Z,2.53
2022-11-04T00:53:48.956Z,3.28
2022-11-04T00:56:15.546Z,2.83
2022-11-04T00:58:42.100Z,2.60
2022-11-04T01:01:17.771Z,2.63
2022-11-04T01:03:45.969Z,2.40
2022-11-04T01:06:12.624Z,3.15
2022-11-04T01:08:39.361Z,2.45
2022-11-04T01:11:08.401Z,3.17
2022-11-04T01:13:35.446Z,2.28
2022-11-04T01:16:05.592Z,2.75
2022-11-04T01:18:32.566Z,2.42
2022-11-04T01:21:03.813Z,4.20
2022-11-04T01:23:30.504Z,2.97
2022-11-04T01:25:57.442Z,2.33
2022-11-04T01:28:24.033Z,2.78
2022-11-04T01:30:50.605Z,3.60
2022-11-04T01:33:17.198Z,2.30
2022-11-04T01:35:43.811Z,2.15
2022-11-04T01:38:11.276Z,2.40
2022-11-04T01:40:39.904Z,2.42
2022-11-04T01:43:18.247Z,2.22
2022-11-04T01:45:52.126Z,1.65
2022-11-04T01:48:26.902Z,2.60
2022-11-04T01:50:54.546Z,3.17
2022-11-04T01:53:32.490Z,1.90
2022-11-04T01:56:02.532Z,2.63
2022-11-04T01:58:33.837Z,2.72
2022-11-04T02:01:01.606Z,2.80
2022-11-04T02:03:35.041Z,4.00
2022-11-04T02:06:02.887Z,2.93
2022-11-04T02:08:30.072Z,3.23
2022-11-04T02:11:00.381Z,5.60
2022-11-04T02:13:28.897Z,1.73
2022-11-04T02:16:10.645Z,2.35
2022-11-04T02:18:52.533Z,2.17
2022-11-04T02:21:40.308Z,4.63
2022-11-04T02:24:42.230Z,5.40
2022-11-04T02:27:20.684Z,2.40
2022-11-04T02:29:55.129Z,2.73
2022-11-04T02:32:25.141Z,2.80
2022-11-04T02:35:16.293Z,3.30
2022-11-04T02:37:49.996Z,3.80
2022-11-04T02:40:41.254Z,4.03
2022-11-04T02:43:24.314Z,3.78
2022-11-04T02:45:59.561Z,3.43
2022-11-04T02:48:49.402Z,5.22
2022-11-04T02:51:27.912Z,5.40
2022-11-04T02:54:06.940Z,4.50
2022-11-04T02:56:37.524Z,3.90
2022-11-04T02:59:31.757Z,6.37
2022-11-04T03:02:01.292Z,3.57
2022-11-04T03:04:33.390Z,2.45
2022-11-04T03:07:03.346Z,5.83
2022-11-04T03:09:32.469Z,4.80
2022-11-04T03:12:06.073Z,6.13
2022-11-04T03:14:48.789Z,5.40
2022-11-04T03:17:45.276Z,3.88
2022-11-04T03:20:19.220Z,7.40
2022-11-04T03:22:46.606Z,5.83
2022-11-04T03:25:13.737Z,5.03
2022-11-04T03:27:49.221Z,2.70
2022-11-04T03:30:21.647Z,4.10
2022-11-04T03:32:48.238Z,5.83
2022-11-04T03:35:16.444Z,5.40
2022-11-04T03:37:44.630Z,4.77
2022-11-04T03:40:12.927Z,5.13
2022-11-04T03:43:03.389Z,6.63
2022-11-04T03:45:30.053Z,4.10
2022-11-04T03:47:58.117Z,7.77
2022-11-04T03:50:32.693Z,4.88
2022-11-04T03:53:00.441Z,4.27
2022-11-04T03:55:51.194Z,6.63
2022-11-04T03:58:32.746Z,6.47
2022-11-04T04:01:12.185Z,4.37
2022-11-04T04:03:48.045Z,4.80
2022-11-04T04:06:25.269Z,5.33
2022-11-04T04:09:05.385Z,6.13
2022-11-04T04:11:58.126Z,8.67
2022-11-04T04:14:42.443Z,8.00
2022-11-04T04:17:31.118Z,5.20
2022-11-04T04:20:02.226Z,7.03
2022-11-04T04:22:43.193Z,5.90
2022-11-04T04:25:31.256Z,4.40
2022-11-04T04:27:59.259Z,4.27
2022-11-04T04:30:26.394Z,6.73
2022-11-04T04:32:58.186Z,5.73
2022-11-04T04:35:43.751Z,6.37
2022-11-04T04:38:35.049Z,4.50
2022-11-04T04:41:42.097Z,6.67
2022-11-04T04:44:53.152Z,3.67
2022-11-04T04:47:24.080Z,6.40
2022-11-04T04:49:55.852Z,5.23
2022-11-04T04:52:24.515Z,5.83
2022-11-04T04:54:51.134Z,7.10
2022-11-04T04:57:17.715Z,4.87
2022-11-04T04:59:44.374Z,5.50
2022-11-04T05:02:11.031Z,4.03
2022-11-04T05:04:37.741Z,3.53
2022-11-04T05:07:04.310Z,4.03
2022-11-04T05:09:30.898Z,4.40
2022-11-04T05:11:57.850Z,5.33
2022-11-04T05:14:24.581Z,4.17
2022-11-04T05:16:51.151Z,5.83
2022-11-04T05:19:17.746Z,5.77
2022-11-04T05:21:44.329Z,4.47
2022-11-04T05:24:11.161Z,5.43
2022-11-04T05:26:37.753Z,4.43
2022-11-04T05:29:04.569Z,7.70
2022-11-04T05:31:31.226Z,3.33
2022-11-04T05:33:59.763Z,9.17
2022-11-04T05:36:26.374Z,10.30
2022-11-04T05:38:55.651Z,6.27
2022-11-04T05:41:28.468Z,5.57
2022-11-04T05:43:57.113Z,6.57
2022-11-04T05:46:24.711Z,4.30
2022-11-04T05:48:51.483Z,4.57
2022-11-04T05:51:21.502Z,4.73
2022-11-04T05:53:48.343Z,4.43
2022-11-04T05:56:15.073Z,4.73
2022-11-04T05:58:41.686Z,4.03
2022-11-04T06:01:41.560Z,5.50
2022-11-04T06:04:14.754Z,7.77
2022-11-04T06:06:41.800Z,7.30
2022-11-04T06:09:08.690Z,3.93
2022-11-04T06:11:37.137Z,10.00
2022-11-04T06:14:04.076Z,4.50
2022-11-04T06:16:30.801Z,5.93
2022-11-04T06:19:01.586Z,4.83
2022-11-04T06:21:33.469Z,3.37
2022-11-04T06:24:00.503Z,6.53
2022-11-04T06:26:28.677Z,5.87
2022-11-04T06:28:56.642Z,6.03
2022-11-04T06:31:23.382Z,4.73
2022-11-04T06:33:49.978Z,5.40
2022-11-04T06:36:17.259Z,4.67
2022-11-04T06:38:44.136Z,7.23
2022-11-04T06:41:13.684Z,3.87
2022-11-04T06:43:40.352Z,5.87
2022-11-04T06:46:25.919Z,3.77
2022-11-04T06:48:52.887Z,5.53
2022-11-04T06:51:19.607Z,7.13
2022-11-04T06:53:46.253Z,4.53
2022-11-04T06:56:12.960Z,4.00
2022-11-04T06:58:39.617Z,6.97
2022-11-04T07:01:13.483Z,6.23
2022-11-04T07:03:41.283Z,5.70
2022-11-04T07:06:09.385Z,4.93
2022-11-04T07:08:36.254Z,6.23
2022-11-04T07:11:03.511Z,5.53
2022-11-04T07:13:30.117Z,8.43
2022-11-04T07:15:57.295Z,4.27
2022-11-04T07:18:23.939Z,5.13
2022-11-04T07:20:50.538Z,6.07
2022-11-04T07:23:17.457Z,6.40
2022-11-04T07:25:44.101Z,6.83
2022-11-04T07:28:10.982Z,7.13
2022-11-04T07:30:37.692Z,4.87
2022-11-04T07:33:04.277Z,4.83
2022-11-04T07:35:30.876Z,6.93
2022-11-04T07:37:57.479Z,6.43
2022-11-04T07:40:24.058Z,6.60
2022-11-04T07:42:50.896Z,5.63
2022-11-04T07:45:18.239Z,6.77
2022-11-04T07:47:44.935Z,4.63
2022-11-04T07:50:11.767Z,5.60
2022-11-04T07:52:38.595Z,6.47
2022-11-04T07:55:06.036Z,5.90
2022-11-04T07:57:32.634Z,4.80
2022-11-04T07:59:59.616Z,7.13
2022-11-04T08:02:31.106Z,5.00
2022-11-04T08:05:00.628Z,7.87
2022-11-04T08:07:27.217Z,5.13
2022-11-04T08:09:53.795Z,5.35
2022-11-04T08:12:22.167Z,6.40
2022-11-04T08:14:48.729Z,6.88
2022-11-04T08:17:15.295Z,5.22
2022-11-04T08:19:41.857Z,5.78
2022-11-04T08:22:09.251Z,5.82
2022-11-04T08:24:35.826Z,6.65
2022-11-04T08:27:04.689Z,7.18
2022-11-04T08:29:31.300Z,5.15
2022-11-04T08:31:57.871Z,4.43
2022-11-04T08:34:24.452Z,5.82
2022-11-04T08:36:53.161Z,5.50
2022-11-04T08:39:20.005Z,6.65
2022-11-04T08:41:46.654Z,7.03
2022-11-04T08:44:14.267Z,5.38
2022-11-04T08:46:42.523Z,6.25
2022-11-04T08:49:11.258Z,6.22
2022-11-04T08:51:42.911Z,5.72
2022-11-04T08:54:10.422Z,5.28
2022-11-04T08:56:40.747Z,6.32
2022-11-04T08:59:08.467Z,5.15
2022-11-04T09:01:36.760Z,6.80
2022-11-04T09:04:04.602Z,5.28
2022-11-04T09:06:35.945Z,5.85
2022-11-04T09:09:04.992Z,7.55
2022-11-04T09:11:33.604Z,6.70
2022-11-04T09:14:01.332Z,9.90
2022-11-04T09:16:29.984Z,7.63
2022-11-04T09:18:58.019Z,7.38
2022-11-04T09:21:26.061Z,10.00
2022-11-04T09:23:52.683Z,3.90
2022-11-04T09:26:19.530Z,6.90
2022-11-04T09:28:46.157Z,5.35
2022-11-04T09:31:18.626Z,4.85
2022-11-04T09:33:45.670Z,5.00
2022-11-04T09:36:14.198Z,5.90
2022-11-04T09:38:42.296Z,6.47
2022-11-04T09:41:47.263Z,4.53
2022-11-04T09:44:30.956Z,3.72
2022-11-04T09:47:03.026Z,6.07
2022-11-04T09:49:36.255Z,4.82
2022-11-04T09:52:08.739Z,4.22
2022-11-04T09:54:47.257Z,3.50
2022-11-04T09:57:18.647Z,3.67
2022-11-04T09:59:47.089Z,3.47
2022-11-04T10:02:38.820Z,4.65
2022-11-04T10:05:32.810Z,2.33
2022-11-04T10:08:21.015Z,3.55
2022-11-04T10:11:05.418Z,3.72
2022-11-04T10:13:55.025Z,5.88
2022-11-04T10:16:48.935Z,4.03
2022-11-04T10:19:21.725Z,4.65
2022-11-04T10:22:10.587Z,9.35
2022-11-04T10:24:43.434Z,5.05
2022-11-04T10:27:17.633Z,5.60
2022-11-04T10:29:45.629Z,5.07
2022-11-04T10:32:22.687Z,5.00
2022-11-04T10:34:56.579Z,5.53
2022-11-04T10:37:25.614Z,2.28
2022-11-04T10:40:01.401Z,2.97
2022-11-04T10:42:28.316Z,5.43
2022-11-04T10:44:55.009Z,3.03
2022-11-04T10:47:26.432Z,2.97
2022-11-04T10:50:31.801Z,5.60
2022-11-04T10:53:12.801Z,7.28
2022-11-04T10:55:57.526Z,3.88
2022-11-04T10:58:27.351Z,3.28
2022-11-04T11:00:54.681Z,3.03
2022-11-04T11:03:34.869Z,4.63
2022-11-04T11:06:24.987Z,4.68
2022-11-04T11:08:54.838Z,5.68
2022-11-04T11:11:47.833Z,3.97
2022-11-04T11:14:48.661Z,2.13
2022-11-04T11:17:15.219Z,3.05
2022-11-04T11:19:58.154Z,2.47
2022-11-04T11:22:39.830Z,4.25
2022-11-04T11:25:24.457Z,4.00
2022-11-04T11:27:54.650Z,4.10
2022-11-04T11:30:28.230Z,3.95
2022-11-04T11:33:04.026Z,3.95
2022-11-04T11:35:42.007Z,3.80
2022-11-04T11:38:19.055Z,3.42
2022-11-04T11:41:03.808Z,3.42
2022-11-04T11:43:36.692Z,4.82
2022-11-04T11:46:03.496Z,4.18
2022-11-04T11:48:38.595Z,2.75
2022-11-04T11:51:06.902Z,4.25
2022-11-04T11:53:38.183Z,2.88
2022-11-04T11:56:26.411Z,3.17
2022-11-04T12:02:25.704Z,4.95
2022-11-04T12:10:54.345Z,3.40
2022-11-04T12:13:27.222Z,3.08
2022-11-04T12:16:31.211Z,1.88
2022-11-04T12:19:03.823Z,2.28
2022-11-04T12:21:39.894Z,3.10
2022-11-04T12:24:24.464Z,3.38
2022-11-04T12:27:15.340Z,4.13
2022-11-04T12:30:07.794Z,4.20
2022-11-04T12:32:53.217Z,13.68
2022-11-04T12:35:35.523Z,9.50
2022-11-04T12:38:23.662Z,8.13
2022-11-04T12:41:58.829Z,3.97
2022-11-04T12:44:33.537Z,3.00
2022-11-04T12:47:13.767Z,5.25
2022-11-04T12:49:46.271Z,3.30
2022-11-04T12:52:25.295Z,2.17
2022-11-04T12:54:58.511Z,1.50
2022-11-04T12:58:04.239Z,1.65
2022-11-04T13:00:32.577Z,1.67
2022-11-04T13:03:11.342Z,3.30
2022-11-04T13:06:01.996Z,2.53
2022-11-04T13:08:36.633Z,2.33
2022-11-04T13:11:24.311Z,2.47
2022-11-04T13:14:16.286Z,2.65
2022-11-04T13:16:46.403Z,2.80
2022-11-04T13:19:34.697Z,3.95
2022-11-04T13:22:07.274Z,3.45
2022-11-04T13:24:38.627Z,2.08
2022-11-04T13:27:18.983Z,2.47
2022-11-04T13:29:47.535Z,2.47
2022-11-04T13:32:28.571Z,2.03
2022-11-04T13:35:08.189Z,3.17
2022-11-04T13:37:43.130Z,2.72
2022-11-04T13:40:18.211Z,3.47
2022-11-04T13:43:28.218Z,3.28
2022-11-04T13:45:56.506Z,3.72
2022-11-04T13:48:26.736Z,5.10
2022-11-04T13:51:00.822Z,2.55
2022-11-04T13:53:40.886Z,3.15
2022-11-04T13:56:31.682Z,2.65
2022-11-04T13:58:58.384Z,3.80
2022-11-04T14:01:25.134Z,3.50
2022-11-04T14:04:29.145Z,2.85
2022-11-04T14:06:59.519Z,5.70
2022-11-04T14:09:28.903Z,3.50
2022-11-04T14:12:10.598Z,3.45
2022-11-04T14:14:38.813Z,3.40
2022-11-04T14:17:34.606Z,3.80
2022-11-04T14:20:31.770Z,3.08
2022-11-04T14:23:03.737Z,3.13
2022-11-04T14:25:44.178Z,2.72
2022-11-04T14:28:10.780Z,3.42
2022-11-04T14:30:37.532Z,2.03
2022-11-04T14:33:08.489Z,3.53
2022-11-04T14:35:36.201Z,4.85
2022-11-04T14:38:20.018Z,3.78
2022-11-04T14:40:54.044Z,4.93
2022-11-04T14:43:44.297Z,7.65
2022-11-04T14:46:18.112Z,5.13
2022-11-04T14:48:52.099Z,5.45
2022-11-04T14:51:33.608Z,2.65
2022-11-04T14:54:18.779Z,3.17
2022-11-04T14:56:46.817Z,2.30
2022-11-04T14:59:27.967Z,10.55
2022-11-04T15:01:55.478Z,4.53
2022-11-04T15:04:28.064Z,4.80
2022-11-04T15:07:02.644Z,3.90
2022-11-04T15:09:32.624Z,5.85
2022-11-04T15:12:33.491Z,3.80
2022-11-04T15:15:00.618Z,4.63
2022-11-04T15:17:31.958Z,4.47
2022-11-04T15:20:02.038Z,5.30
2022-11-04T15:22:30.447Z,2.83
2022-11-04T15:25:02.750Z,4.10
2022-11-04T15:27:30.104Z,5.03
2022-11-04T15:30:06.076Z,5.57
2022-11-04T15:32:32.655Z,6.82
2022-11-04T15:34:59.849Z,7.35
2022-11-04T15:37:28.956Z,5.57
2022-11-04T15:39:57.861Z,4.30
2022-11-04T15:42:37.134Z,5.32
2022-11-04T15:45:22.157Z,4.88
2022-11-04T15:47:49.702Z,13.63
2022-11-04T15:50:26.104Z,13.13
2022-11-04T15:52:56.009Z,41.55
2022-11-04T15:55:25.949Z,9.00
2022-11-04T15:57:55.435Z,9.82
2022-11-04T16:00:24.932Z,7.30
2022-11-04T16:02:55.185Z,8.98
2022-11-04T16:05:25.436Z,10.77
2022-11-04T16:07:54.363Z,7.78
2022-11-04T16:10:24.886Z,4.07
2022-11-04T16:13:16.715Z,6.28
2022-11-04T16:15:50.384Z,5.55
2022-11-04T16:18:42.839Z,10.48
2022-11-04T16:21:20.311Z,6.18
2022-11-04T16:23:51.553Z,9.55
2022-11-04T16:26:24.657Z,15.70
2022-11-04T16:28:57.696Z,19.05
2022-11-04T16:31:33.394Z,22.42
2022-11-04T16:34:00.583Z,21.10
2022-11-04T16:36:34.013Z,17.50
2022-11-04T16:39:04.646Z,14.80
2022-11-04T16:41:37.608Z,12.82
2022-11-04T16:44:05.976Z,7.70
2022-11-04T16:46:34.162Z,7.63
2022-11-04T16:49:00.748Z,6.57
2022-11-04T16:51:27.351Z,10.82
2022-11-04T16:53:54.887Z,15.18
2022-11-04T16:56:24.941Z,4.88
2022-11-04T16:58:52.815Z,4.97
2022-11-04T17:01:21.255Z,7.90
2022-11-04T17:03:48.120Z,6.03
2022-11-04T17:06:16.661Z,4.88
2022-11-04T17:08:43.617Z,4.45
2022-11-04T17:11:11.077Z,5.40
2022-11-04T17:13:38.247Z,4.85
2022-11-04T17:16:13.014Z,4.25
2022-11-04T17:18:39.679Z,2.97
2022-11-04T17:21:08.010Z,6.43
2022-11-04T17:23:34.598Z,5.90
2022-11-04T17:26:01.850Z,5.18
2022-11-04T17:28:28.438Z,3.30
2022-11-04T17:30:55.218Z,3.70
2022-11-04T17:33:22.144Z,3.22
2022-11-04T17:35:51.374Z,5.30
2022-11-04T17:38:18.826Z,4.05
2022-11-04T17:41:04.658Z,3.00
2022-11-04T17:43:49.886Z,4.45
2022-11-04T17:46:35.413Z,4.55
2022-11-04T17:49:08.593Z,3.53
2022-11-04T17:51:35.986Z,4.15
2022-11-04T17:54:02.966Z,3.57
2022-11-04T17:56:30.757Z,3.78
2022-11-04T17:59:00.383Z,5.75
2022-11-04T18:01:27.720Z,4.57
2022-11-04T18:03:54.739Z,3.75
2022-11-04T18:06:22.290Z,4.40
2022-11-04T18:08:49.196Z,4.72
2022-11-04T18:11:35.964Z,3.67
2022-11-04T18:14:02.677Z,2.45
2022-11-04T18:16:29.293Z,3.85
2022-11-04T18:18:58.912Z,3.00
2022-11-04T18:21:26.600Z,2.78
2022-11-04T18:23:55.266Z,3.63
2022-11-04T18:26:22.147Z,5.32
2022-11-04T18:28:48.805Z,4.95
2022-11-04T18:31:23.336Z,4.10
2022-11-04T18:33:50.435Z,5.13
2022-11-04T18:36:17.046Z,6.97
2022-11-04T18:38:44.035Z,4.30
2022-11-04T18:41:10.814Z,3.80
2022-11-04T18:43:37.462Z,4.43
2022-11-04T18:46:09.052Z,4.60
2022-11-04T18:48:37.088Z,4.72
2022-11-04T18:51:05.486Z,7.22
2022-11-04T18:53:32.087Z,6.53
2022-11-04T18:56:07.369Z,4.63
2022-11-04T18:58:35.816Z,4.60
2022-11-04T19:01:17.539Z,10.45
2022-11-04T19:03:44.412Z,5.10
2022-11-04T19:06:17.671Z,6.97
2022-11-04T19:08:46.874Z,4.93
2022-11-04T19:11:35.585Z,4.43
2022-11-04T19:14:09.407Z,6.63
2022-11-04T19:16:36.341Z,7.63
2022-11-04T19:19:06.383Z,5.88
2022-11-04T19:21:33.688Z,5.95
2022-11-04T19:24:00.566Z,8.40
2022-11-04T19:26:30.328Z,7.20
2022-11-04T19:28:57.806Z,6.10
2022-11-04T19:31:28.065Z,11.53
2022-11-04T19:33:58.040Z,23.23
2022-11-04T19:36:25.620Z,14.97
2022-11-04T19:38:54.717Z,13.60
2022-11-04T19:41:41.602Z,7.07
2022-11-04T19:44:13.665Z,6.10
2022-11-04T19:46:40.406Z,6.00
2022-11-04T19:49:08.004Z,7.93
2022-11-04T19:51:35.790Z,8.33
2022-11-04T19:54:02.781Z,13.57
2022-11-04T19:56:30.611Z,9.03
2022-11-04T19:59:00.477Z,9.40
2022-11-04T20:01:31.641Z,9.10
2022-11-04T20:03:58.736Z,8.67
2022-11-04T20:06:25.574Z,8.30
2022-11-04T20:08:53.007Z,8.37
2022-11-04T20:11:20.525Z,7.53
2022-11-04T20:13:47.922Z,6.53
2022-11-04T20:16:29.852Z,6.87
2022-11-04T20:19:00.704Z,6.83
2022-11-04T20:21:30.292Z,7.97
2022-11-04T20:24:02.254Z,5.63
2022-11-04T20:26:30.902Z,7.90
2022-11-04T20:29:00.880Z,6.30
2022-11-04T20:31:29.907Z,7.77
2022-11-04T20:33:57.088Z,5.93
2022-11-04T20:36:26.487Z,6.10
2022-11-04T20:39:00.988Z,7.47
2022-11-04T20:41:28.342Z,6.10
2022-11-04T20:43:55.927Z,8.80
2022-11-04T20:46:28.166Z,8.60
2022-11-04T20:48:56.358Z,9.13
2022-11-04T20:51:25.340Z,9.70
2022-11-04T20:53:56.261Z,15.57
2022-11-04T20:56:25.317Z,14.93
2022-11-04T20:58:58.600Z,10.57
2022-11-04T21:01:28.990Z,9.70
2022-11-04T21:04:18.993Z,7.93
2022-11-04T21:06:47.943Z,6.50
2022-11-04T21:09:16.538Z,7.47
2022-11-04T21:11:43.382Z,7.03
2022-11-04T21:14:14.313Z,6.90
2022-11-04T21:16:40.965Z,9.23
2022-11-04T21:19:08.076Z,8.13
2022-11-04T21:21:35.028Z,8.77
2022-11-04T21:24:06.586Z,7.77
2022-11-04T21:26:35.253Z,6.93
2022-11-04T21:29:06.010Z,8.20
2022-11-04T21:31:34.325Z,8.90
2022-11-04T21:34:01.161Z,8.07
2022-11-04T21:36:28.120Z,8.13
2022-11-04T21:38:55.034Z,8.73
2022-11-04T21:41:27.998Z,8.80
2022-11-04T21:43:56.547Z,8.87
2022-11-04T21:46:24.051Z,8.43
2022-11-04T21:48:50.727Z,7.93
2022-11-04T21:51:22.231Z,8.73
2022-11-04T21:53:48.977Z,8.47
2022-11-04T21:56:22.125Z,9.90
2022-11-04T21:58:48.895Z,9.73
2022-11-04T22:01:18.726Z,13.17
2022-11-04T22:03:52.243Z,11.93
2022-11-04T22:06:19.277Z,10.97
2022-11-04T22:08:49.337Z,12.43
2022-11-04T22:11:22.554Z,18.37
2022-11-04T22:13:53.270Z,16.23
2022-11-04T22:16:22.685Z,22.02
2022-11-04T22:18:52.757Z,16.97
2022-11-04T22:21:19.916Z,18.87
2022-11-04T22:23:46.542Z,17.70
2022-11-04T22:26:22.250Z,14.88
2022-11-04T22:28:48.966Z,18.65
2022-11-04T22:31:22.632Z,15.23
2022-11-04T22:33:50.540Z,19.58
2022-11-04T22:36:18.071Z,16.93
2022-11-04T22:38:44.739Z,18.23
2022-11-04T22:41:14.509Z,19.47
2022-11-04T22:43:41.349Z,20.87
2022-11-04T22:46:15.634Z,19.30
2022-11-04T22:48:42.880Z,23.40
2022-11-04T22:51:10.343Z,19.37
2022-11-04T22:53:38.611Z,21.17
2022-11-04T22:56:07.500Z,21.00
2022-11-04T22:58:34.370Z,19.33
2022-11-04T23:01:05.190Z,19.57
2022-11-04T23:03:32.537Z,20.33
2022-11-04T23:06:01.680Z,19.33
2022-11-04T23:08:30.101Z,17.77
2022-11-04T23:11:18.567Z,21.33
2022-11-04T23:14:09.487Z,23.37
2022-11-04T23:16:55.386Z,20.23
2022-11-04T23:19:24.713Z,19.37
2022-11-04T23:22:13.486Z,17.47
2022-11-04T23:24:58.582Z,18.03
2022-11-04T23:27:43.804Z,18.03
2022-11-04T23:30:21.772Z,17.37
2022-11-04T23:32:49.604Z,16.57
2022-11-04T23:35:35.562Z,19.30
2022-11-04T23:38:02.348Z,16.40
2022-11-04T23:40:31.134Z,15.77
2022-11-04T23:42:57.983Z,17.75
2022-11-04T23:45:44.231Z,17.52
2022-11-04T23:48:30.040Z,17.07
2022-11-04T23:51:16.696Z,15.13
2022-11-04T23:54:02.546Z,11.53
2022-11-04T23:56:47.865Z,10.40
2022-11-04T23:59:34.996Z,12.73
